sensor_id;sensor_type;location;lat;lon;timestamp;pressure;altitude;pressure_sealevel;temperature;humidity
78488;BME280;67885;49.758;9.582;2023-03-24T00:00:23;98267.97;;;18.33;47.06
78488;BME280;67885;49.758;9.582;2023-03-24T00:02:50;98269.81;;;18.32;47.32
78488;BME280;67885;49.758;9.582;2023-03-24T00:05:20;98279.50;;;18.33;47.36
78488;BME280;67885;49.758;9.582;2023-03-24T00:07:48;98262.97;;;18.30;47.37
78488;BME280;67885;49.758;9.582;2023-03-24T00:10:17;98274.84;;;18.42;47.60
78488;BME280;67885;49.758;9.582;2023-03-24T00:12:45;98263.47;;;18.40;47.57
78488;BME280;67885;49.758;9.582;2023-03-24T00:15:15;98271.72;;;18.39;47.95
78488;BME280;67885;49.758;9.582;2023-03-24T00:17:43;98251.03;;;18.32;47.59
78488;BME280;67885;49.758;9.582;2023-03-24T00:20:13;98245.88;;;18.31;47.44
78488;BME280;67885;49.758;9.582;2023-03-24T00:22:44;98248.56;;;18.31;47.31
78488;BME280;67885;49.758;9.582;2023-03-24T00:25:16;98244.06;;;18.31;46.66
78488;BME280;67885;49.758;9.582;2023-03-24T00:27:43;98165.34;;;17.76;46.99
78488;BME280;67885;49.758;9.582;2023-03-24T00:30:14;98228.53;;;18.27;47.47
78488;BME280;67885;49.758;9.582;2023-03-24T00:32:41;98234.50;;;18.22;47.97
78488;BME280;67885;49.758;9.582;2023-03-24T00:35:11;98224.81;;;18.21;48.06
78488;BME280;67885;49.758;9.582;2023-03-24T00:37:38;98227.03;;;18.17;48.18
78488;BME280;67885;49.758;9.582;2023-03-24T00:40:10;98214.44;;;18.11;47.02
78488;BME280;67885;49.758;9.582;2023-03-24T00:42:38;98188.38;;;17.98;47.36
78488;BME280;67885;49.758;9.582;2023-03-24T00:45:07;98218.22;;;18.24;48.37
78488;BME280;67885;49.758;9.582;2023-03-24T00:47:35;98204.22;;;18.28;47.57
78488;BME280;67885;49.758;9.582;2023-03-24T00:50:03;98199.66;;;18.22;47.82
78488;BME280;67885;49.758;9.582;2023-03-24T00:52:31;98201.34;;;18.30;48.33
78488;BME280;67885;49.758;9.582;2023-03-24T00:55:01;98187.28;;;18.21;48.00
78488;BME280;67885;49.758;9.582;2023-03-24T00:57:31;98190.94;;;18.13;48.66
78488;BME280;67885;49.758;9.582;2023-03-24T01:00:01;98195.28;;;18.14;48.31
78488;BME280;67885;49.758;9.582;2023-03-24T01:02:35;98196.28;;;18.13;48.29
78488;BME280;67885;49.758;9.582;2023-03-24T01:05:02;98180.19;;;18.07;48.17
78488;BME280;67885;49.758;9.582;2023-03-24T01:07:29;98171.75;;;18.10;48.57
78488;BME280;67885;49.758;9.582;2023-03-24T01:09:56;98210.13;;;18.17;48.64
78488;BME280;67885;49.758;9.582;2023-03-24T01:12:23;98168.69;;;18.13;48.75
78488;BME280;67885;49.758;9.582;2023-03-24T01:14:52;98162.03;;;18.02;49.35
78488;BME280;67885;49.758;9.582;2023-03-24T01:17:19;98167.06;;;17.90;49.44
78488;BME280;67885;49.758;9.582;2023-03-24T01:19:47;98156.03;;;17.72;50.47
78488;BME280;67885;49.758;9.582;2023-03-24T01:22:14;98178.88;;;17.74;50.22
78488;BME280;67885;49.758;9.582;2023-03-24T01:24:41;98167.97;;;17.69;49.87
78488;BME280;67885;49.758;9.582;2023-03-24T01:27:09;98166.03;;;17.63;49.63
78488;BME280;67885;49.758;9.582;2023-03-24T01:29:35;98040.78;;;16.80;49.12
78488;BME280;67885;49.758;9.582;2023-03-24T01:32:04;98153.63;;;17.55;48.65
78488;BME280;67885;49.758;9.582;2023-03-24T01:34:31;98130.72;;;17.46;49.07
78488;BME280;67885;49.758;9.582;2023-03-24T01:36:58;98100.13;;;17.33;48.78
78488;BME280;67885;49.758;9.582;2023-03-24T01:39:24;98135.97;;;17.61;49.17
78488;BME280;67885;49.758;9.582;2023-03-24T01:41:51;98103.94;;;17.46;49.25
78488;BME280;67885;49.758;9.582;2023-03-24T01:44:30;98090.94;;;17.43;47.97
78488;BME280;67885;49.758;9.582;2023-03-24T01:46:58;98082.09;;;17.42;48.92
78488;BME280;67885;49.758;9.582;2023-03-24T01:49:30;98119.94;;;17.67;48.96
78488;BME280;67885;49.758;9.582;2023-03-24T01:52:00;98118.97;;;17.75;48.99
78488;BME280;67885;49.758;9.582;2023-03-24T01:54:33;98120.16;;;17.73;49.45
78488;BME280;67885;49.758;9.582;2023-03-24T01:57:04;98116.47;;;17.74;49.23
78488;BME280;67885;49.758;9.582;2023-03-24T01:59:36;98091.47;;;17.60;49.66
78488;BME280;67885;49.758;9.582;2023-03-24T02:02:05;98111.28;;;17.65;50.07
78488;BME280;67885;49.758;9.582;2023-03-24T02:04:37;98100.72;;;17.57;50.18
78488;BME280;67885;49.758;9.582;2023-03-24T02:07:11;98103.97;;;17.52;50.35
78488;BME280;67885;49.758;9.582;2023-03-24T02:09:40;98085.22;;;17.46;50.61
78488;BME280;67885;49.758;9.582;2023-03-24T02:12:07;98089.59;;;17.32;51.71
78488;BME280;67885;49.758;9.582;2023-03-24T02:14:34;98095.59;;;17.34;52.05
78488;BME280;67885;49.758;9.582;2023-03-24T02:17:14;98067.06;;;17.19;51.90
78488;BME280;67885;49.758;9.582;2023-03-24T02:20:10;98095.28;;;17.22;52.08
78488;BME280;67885;49.758;9.582;2023-03-24T02:23:14;98082.94;;;17.21;52.14
78488;BME280;67885;49.758;9.582;2023-03-24T02:26:33;98077.59;;;17.21;51.43
78488;BME280;67885;49.758;9.582;2023-03-24T02:29:23;97969.31;;;16.45;51.65
78488;BME280;67885;49.758;9.582;2023-03-24T02:32:21;98057.38;;;16.90;51.99
78488;BME280;67885;49.758;9.582;2023-03-24T02:35:12;98056.44;;;16.83;52.58
78488;BME280;67885;49.758;9.582;2023-03-24T02:38:07;98077.59;;;16.99;51.83
78488;BME280;67885;49.758;9.582;2023-03-24T02:40:44;98068.91;;;16.91;53.12
78488;BME280;67885;49.758;9.582;2023-03-24T02:43:28;98054.91;;;16.74;52.75
78488;BME280;67885;49.758;9.582;2023-03-24T02:46:10;98058.41;;;16.89;52.34
78488;BME280;67885;49.758;9.582;2023-03-24T02:48:52;98053.56;;;16.84;52.19
78488;BME280;67885;49.758;9.582;2023-03-24T02:51:29;98061.59;;;16.84;52.14
78488;BME280;67885;49.758;9.582;2023-03-24T02:54:08;98096.75;;;16.81;52.37
78488;BME280;67885;49.758;9.582;2023-03-24T02:56:43;98048.28;;;16.69;52.10
78488;BME280;67885;49.758;9.582;2023-03-24T02:59:17;98061.53;;;16.78;51.72
78488;BME280;67885;49.758;9.582;2023-03-24T03:01:50;98047.75;;;16.74;51.96
78488;BME280;67885;49.758;9.582;2023-03-24T03:04:27;98006.28;;;16.42;52.59
78488;BME280;67885;49.758;9.582;2023-03-24T03:07:01;98021.38;;;16.49;52.28
78488;BME280;67885;49.758;9.582;2023-03-24T03:09:33;98059.84;;;16.70;52.63
78488;BME280;67885;49.758;9.582;2023-03-24T03:12:07;98039.00;;;16.65;52.44
78488;BME280;67885;49.758;9.582;2023-03-24T03:14:39;98047.94;;;16.73;52.14
78488;BME280;67885;49.758;9.582;2023-03-24T03:17:12;98037.41;;;16.71;52.37
78488;BME280;67885;49.758;9.582;2023-03-24T03:19:45;98034.94;;;16.69;52.12
78488;BME280;67885;49.758;9.582;2023-03-24T03:22:20;98030.16;;;16.65;51.98
78488;BME280;67885;49.758;9.582;2023-03-24T03:24:53;98035.72;;;16.63;52.34
78488;BME280;67885;49.758;9.582;2023-03-24T03:27:25;98016.47;;;16.53;51.91
78488;BME280;67885;49.758;9.582;2023-03-24T03:30:00;98022.34;;;16.63;51.64
78488;BME280;67885;49.758;9.582;2023-03-24T03:32:32;97993.50;;;16.59;50.91
78488;BME280;67885;49.758;9.582;2023-03-24T03:35:06;98023.03;;;16.72;51.13
78488;BME280;67885;49.758;9.582;2023-03-24T03:37:41;98014.06;;;16.80;50.91
78488;BME280;67885;49.758;9.582;2023-03-24T03:40:18;98009.22;;;16.68;50.24
78488;BME280;67885;49.758;9.582;2023-03-24T03:42:48;98004.63;;;16.84;50.66
78488;BME280;67885;49.758;9.582;2023-03-24T03:45:16;98006.38;;;16.92;51.18
78488;BME280;67885;49.758;9.582;2023-03-24T03:47:44;97925.00;;;16.29;50.36
78488;BME280;67885;49.758;9.582;2023-03-24T03:50:11;98036.00;;;16.90;50.77
78488;BME280;67885;49.758;9.582;2023-03-24T03:52:39;98005.38;;;16.99;50.86
78488;BME280;67885;49.758;9.582;2023-03-24T03:55:10;98003.56;;;17.00;50.43
78488;BME280;67885;49.758;9.582;2023-03-24T03:57:38;98014.25;;;17.00;50.35
78488;BME280;67885;49.758;9.582;2023-03-24T04:00:14;98013.41;;;16.99;50.84
78488;BME280;67885;49.758;9.582;2023-03-24T04:02:52;97995.69;;;16.92;50.60
78488;BME280;67885;49.758;9.582;2023-03-24T04:05:27;97982.53;;;16.75;50.69
78488;BME280;67885;49.758;9.582;2023-03-24T04:08:07;98002.25;;;16.89;50.43
78488;BME280;67885;49.758;9.582;2023-03-24T04:10:56;97997.41;;;16.84;51.03
78488;BME280;67885;49.758;9.582;2023-03-24T04:13:36;98017.28;;;16.97;50.64
78488;BME280;67885;49.758;9.582;2023-03-24T04:16:14;97996.16;;;16.80;50.31
78488;BME280;67885;49.758;9.582;2023-03-24T04:19:07;98010.75;;;16.99;50.51
78488;BME280;67885;49.758;9.582;2023-03-24T04:21:46;98000.19;;;16.91;50.13
78488;BME280;67885;49.758;9.582;2023-03-24T04:24:30;98017.13;;;16.98;49.70
78488;BME280;67885;49.758;9.582;2023-03-24T04:27:10;97990.59;;;16.82;49.46
78488;BME280;67885;49.758;9.582;2023-03-24T04:29:49;98025.44;;;17.10;49.37
78488;BME280;67885;49.758;9.582;2023-03-24T04:32:26;98029.56;;;17.13;49.78
78488;BME280;67885;49.758;9.582;2023-03-24T04:34:59;98046.63;;;17.12;48.86
78488;BME280;67885;49.758;9.582;2023-03-24T04:37:30;98031.81;;;17.09;49.28
78488;BME280;67885;49.758;9.582;2023-03-24T04:40:06;98032.44;;;17.11;49.08
78488;BME280;67885;49.758;9.582;2023-03-24T04:42:36;98040.66;;;17.10;49.25
78488;BME280;67885;49.758;9.582;2023-03-24T04:45:07;98018.41;;;17.02;49.72
78488;BME280;67885;49.758;9.582;2023-03-24T04:47:41;98025.63;;;17.09;48.85
78488;BME280;67885;49.758;9.582;2023-03-24T04:50:11;98038.25;;;17.15;49.77
78488;BME280;67885;49.758;9.582;2023-03-24T04:52:38;98033.25;;;17.12;49.27
78488;BME280;67885;49.758;9.582;2023-03-24T04:55:28;98040.53;;;17.18;49.59
78488;BME280;67885;49.758;9.582;2023-03-24T04:57:57;98041.34;;;17.18;50.49
78488;BME280;67885;49.758;9.582;2023-03-24T05:00:24;97995.03;;;16.90;50.36
78488;BME280;67885;49.758;9.582;2023-03-24T05:02:53;98044.59;;;17.14;51.50
78488;BME280;67885;49.758;9.582;2023-03-24T05:05:20;98076.72;;;17.14;51.12
78488;BME280;67885;49.758;9.582;2023-03-24T05:07:46;98028.78;;;16.91;51.23
78488;BME280;67885;49.758;9.582;2023-03-24T05:10:13;98049.31;;;17.12;51.08
78488;BME280;67885;49.758;9.582;2023-03-24T05:12:40;97958.69;;;16.52;51.58
78488;BME280;67885;49.758;9.582;2023-03-24T05:15:07;98061.06;;;17.11;51.70
78488;BME280;67885;49.758;9.582;2023-03-24T05:17:34;98065.94;;;17.07;52.53
78488;BME280;67885;49.758;9.582;2023-03-24T05:20:03;98031.09;;;16.79;52.48
78488;BME280;67885;49.758;9.582;2023-03-24T05:22:35;98070.97;;;16.95;53.23
78488;BME280;67885;49.758;9.582;2023-03-24T05:25:02;98082.78;;;16.86;53.71
78488;BME280;67885;49.758;9.582;2023-03-24T05:27:28;98081.09;;;16.78;54.98
78488;BME280;67885;49.758;9.582;2023-03-24T05:29:55;98087.19;;;16.72;54.62
78488;BME280;67885;49.758;9.582;2023-03-24T05:32:22;97968.31;;;15.88;55.47
78488;BME280;67885;49.758;9.582;2023-03-24T05:34:49;98109.00;;;16.54;55.78
78488;BME280;67885;49.758;9.582;2023-03-24T05:37:17;98062.91;;;16.52;55.96
78488;BME280;67885;49.758;9.582;2023-03-24T05:39:43;98089.91;;;16.57;56.37
78488;BME280;67885;49.758;9.582;2023-03-24T05:42:10;98084.69;;;16.49;56.66
78488;BME280;67885;49.758;9.582;2023-03-24T05:44:37;98104.13;;;16.58;56.99
78488;BME280;67885;49.758;9.582;2023-03-24T05:47:04;98101.63;;;16.56;56.96
78488;BME280;67885;49.758;9.582;2023-03-24T05:49:31;98104.09;;;16.36;57.71
78488;BME280;67885;49.758;9.582;2023-03-24T05:51:57;98110.47;;;16.57;57.50
78488;BME280;67885;49.758;9.582;2023-03-24T05:54:26;98108.63;;;16.57;58.04
78488;BME280;67885;49.758;9.582;2023-03-24T05:56:53;98101.44;;;16.58;57.94
78488;BME280;67885;49.758;9.582;2023-03-24T05:59:19;98097.66;;;16.52;57.87
78488;BME280;67885;49.758;9.582;2023-03-24T06:01:47;98091.13;;;16.55;58.03
78488;BME280;67885;49.758;9.582;2023-03-24T06:04:13;98137.72;;;16.67;58.19
78488;BME280;67885;49.758;9.582;2023-03-24T06:06:40;98143.72;;;16.69;57.74
78488;BME280;67885;49.758;9.582;2023-03-24T06:09:10;98108.16;;;16.68;58.01
78488;BME280;67885;49.758;9.582;2023-03-24T06:11:40;98127.88;;;16.67;57.95
78488;BME280;67885;49.758;9.582;2023-03-24T06:14:07;98129.81;;;16.59;58.33
78488;BME280;67885;49.758;9.582;2023-03-24T06:16:33;98110.16;;;16.66;58.26
78488;BME280;67885;49.758;9.582;2023-03-24T06:19:04;98106.69;;;16.66;58.59
78488;BME280;67885;49.758;9.582;2023-03-24T06:21:31;98098.28;;;16.69;58.63
78488;BME280;67885;49.758;9.582;2023-03-24T06:23:58;98081.00;;;16.50;58.05
78488;BME280;67885;49.758;9.582;2023-03-24T06:26:26;98075.06;;;16.55;58.46
78488;BME280;67885;49.758;9.582;2023-03-24T06:28:56;98053.56;;;16.41;58.92
78488;BME280;67885;49.758;9.582;2023-03-24T06:31:24;98028.72;;;16.26;58.64
78488;BME280;67885;49.758;9.582;2023-03-24T06:33:53;98106.22;;;16.62;58.25
78488;BME280;67885;49.758;9.582;2023-03-24T06:36:20;98093.31;;;16.66;58.17
78488;BME280;67885;49.758;9.582;2023-03-24T06:38:50;98050.88;;;16.41;58.04
78488;BME280;67885;49.758;9.582;2023-03-24T06:41:17;98061.72;;;16.55;58.41
78488;BME280;67885;49.758;9.582;2023-03-24T06:43:43;98104.16;;;16.79;57.89
78488;BME280;67885;49.758;9.582;2023-03-24T06:46:12;98002.22;;;16.24;57.42
78488;BME280;67885;49.758;9.582;2023-03-24T06:48:39;98012.16;;;16.15;57.43
78488;BME280;67885;49.758;9.582;2023-03-24T06:51:06;98106.25;;;16.84;57.75
78488;BME280;67885;49.758;9.582;2023-03-24T06:53:33;98109.38;;;16.88;57.51
78488;BME280;67885;49.758;9.582;2023-03-24T06:56:00;98117.66;;;16.93;57.52
78488;BME280;67885;49.758;9.582;2023-03-24T06:58:26;98014.56;;;16.25;57.71
78488;BME280;67885;49.758;9.582;2023-03-24T07:00:53;98101.50;;;16.86;57.43
78488;BME280;67885;49.758;9.582;2023-03-24T07:03:21;98114.06;;;16.85;57.50
78488;BME280;67885;49.758;9.582;2023-03-24T07:05:49;98124.03;;;16.92;57.40
78488;BME280;67885;49.758;9.582;2023-03-24T07:08:16;98128.81;;;16.96;57.86
78488;BME280;67885;49.758;9.582;2023-03-24T07:10:43;98121.47;;;16.83;56.82
78488;BME280;67885;49.758;9.582;2023-03-24T07:13:10;98137.41;;;16.92;57.43
78488;BME280;67885;49.758;9.582;2023-03-24T07:15:37;98119.06;;;16.74;57.73
78488;BME280;67885;49.758;9.582;2023-03-24T07:18:04;98135.06;;;16.89;57.86
78488;BME280;67885;49.758;9.582;2023-03-24T07:20:32;98142.97;;;16.90;58.13
78488;BME280;67885;49.758;9.582;2023-03-24T07:22:59;98134.56;;;16.93;57.43
78488;BME280;67885;49.758;9.582;2023-03-24T07:25:26;98134.84;;;16.83;57.67
78488;BME280;67885;49.758;9.582;2023-03-24T07:27:53;98154.47;;;16.91;57.54
78488;BME280;67885;49.758;9.582;2023-03-24T07:30:20;98153.16;;;16.86;57.30
78488;BME280;67885;49.758;9.582;2023-03-24T07:32:48;98156.22;;;16.83;57.65
78488;BME280;67885;49.758;9.582;2023-03-24T07:35:16;98159.72;;;16.84;57.53
78488;BME280;67885;49.758;9.582;2023-03-24T07:37:44;98142.31;;;16.73;56.95
78488;BME280;67885;49.758;9.582;2023-03-24T07:40:12;98150.41;;;16.80;57.47
78488;BME280;67885;49.758;9.582;2023-03-24T07:42:41;98149.75;;;16.78;56.90
78488;BME280;67885;49.758;9.582;2023-03-24T07:45:09;98094.88;;;16.39;57.25
78488;BME280;67885;49.758;9.582;2023-03-24T07:47:37;98103.97;;;16.44;57.04
78488;BME280;67885;49.758;9.582;2023-03-24T07:50:05;98034.13;;;15.96;57.00
78488;BME280;67885;49.758;9.582;2023-03-24T07:52:34;98020.69;;;15.89;57.91
78488;BME280;67885;49.758;9.582;2023-03-24T07:55:03;98163.06;;;16.71;57.48
78488;BME280;67885;49.758;9.582;2023-03-24T07:57:30;98153.84;;;16.74;57.47
78488;BME280;67885;49.758;9.582;2023-03-24T07:59:59;98154.69;;;16.74;57.25
78488;BME280;67885;49.758;9.582;2023-03-24T08:02:26;98146.28;;;16.77;58.08
78488;BME280;67885;49.758;9.582;2023-03-24T08:04:52;98149.41;;;16.81;58.04
78488;BME280;67885;49.758;9.582;2023-03-24T08:07:20;98140.34;;;16.82;57.66
78488;BME280;67885;49.758;9.582;2023-03-24T08:09:47;98095.91;;;16.59;57.74
78488;BME280;67885;49.758;9.582;2023-03-24T08:12:15;98037.41;;;16.28;57.61
78488;BME280;67885;49.758;9.582;2023-03-24T08:14:42;98142.00;;;16.98;57.63
78488;BME280;67885;49.758;9.582;2023-03-24T08:17:08;98126.13;;;16.96;57.29
78488;BME280;67885;49.758;9.582;2023-03-24T08:19:35;98134.03;;;17.05;57.23
78488;BME280;67885;49.758;9.582;2023-03-24T08:22:02;98136.97;;;17.10;57.46
78488;BME280;67885;49.758;9.582;2023-03-24T08:24:29;98129.00;;;17.16;56.92
78488;BME280;67885;49.758;9.582;2023-03-24T08:26:55;98097.22;;;16.85;56.96
78488;BME280;67885;49.758;9.582;2023-03-24T08:29:25;98143.25;;;17.24;56.65
78488;BME280;67885;49.758;9.582;2023-03-24T08:31:51;98040.22;;;16.63;56.99
78488;BME280;67885;49.758;9.582;2023-03-24T08:34:18;98143.13;;;17.32;56.24
78488;BME280;67885;49.758;9.582;2023-03-24T08:36:45;98130.34;;;17.27;56.44
78488;BME280;67885;49.758;9.582;2023-03-24T08:39:11;98098.06;;;17.07;55.86
78488;BME280;67885;49.758;9.582;2023-03-24T08:41:38;98144.19;;;17.09;56.07
78488;BME280;67885;49.758;9.582;2023-03-24T08:44:05;98118.69;;;16.92;56.02
78488;BME280;67885;49.758;9.582;2023-03-24T08:46:33;98083.91;;;16.70;56.24
78488;BME280;67885;49.758;9.582;2023-03-24T08:49:00;98024.94;;;16.35;56.67
78488;BME280;67885;49.758;9.582;2023-03-24T08:51:27;98096.56;;;16.83;56.88
78488;BME280;67885;49.758;9.582;2023-03-24T08:53:53;98053.69;;;16.55;56.88
78488;BME280;67885;49.758;9.582;2023-03-24T08:56:21;98132.44;;;17.10;56.97
78488;BME280;67885;49.758;9.582;2023-03-24T08:58:48;98053.16;;;16.59;57.40
78488;BME280;67885;49.758;9.582;2023-03-24T09:01:15;98110.69;;;16.77;57.89
78488;BME280;67885;49.758;9.582;2023-03-24T09:03:43;98135.63;;;16.99;58.28
78488;BME280;67885;49.758;9.582;2023-03-24T09:06:10;98163.25;;;17.06;58.93
78488;BME280;67885;49.758;9.582;2023-03-24T09:08:37;98166.13;;;17.05;59.06
78488;BME280;67885;49.758;9.582;2023-03-24T09:11:05;98152.31;;;17.01;59.49
78488;BME280;67885;49.758;9.582;2023-03-24T09:13:33;98137.91;;;17.02;59.33
78488;BME280;67885;49.758;9.582;2023-03-24T09:16:03;98140.22;;;17.05;60.15
78488;BME280;67885;49.758;9.582;2023-03-24T09:18:30;98139.00;;;17.08;59.88
78488;BME280;67885;49.758;9.582;2023-03-24T09:20:59;98131.75;;;17.01;59.79
78488;BME280;67885;49.758;9.582;2023-03-24T09:23:25;98145.25;;;17.15;59.89
78488;BME280;67885;49.758;9.582;2023-03-24T09:25:54;98142.31;;;17.10;59.11
78488;BME280;67885;49.758;9.582;2023-03-24T09:28:21;98158.19;;;17.11;59.44
78488;BME280;67885;49.758;9.582;2023-03-24T09:30:48;98150.88;;;17.20;58.78
78488;BME280;67885;49.758;9.582;2023-03-24T09:33:15;98144.94;;;17.25;59.18
78488;BME280;67885;49.758;9.582;2023-03-24T09:35:42;98130.16;;;17.29;58.17
78488;BME280;67885;49.758;9.582;2023-03-24T09:38:10;98135.31;;;17.30;58.10
78488;BME280;67885;49.758;9.582;2023-03-24T09:40:39;98141.03;;;17.27;57.33
78488;BME280;67885;49.758;9.582;2023-03-24T09:43:16;98133.56;;;17.23;57.72
78488;BME280;67885;49.758;9.582;2023-03-24T09:45:50;98136.63;;;17.19;57.78
78488;BME280;67885;49.758;9.582;2023-03-24T09:48:24;98128.28;;;17.08;58.39
78488;BME280;67885;49.758;9.582;2023-03-24T09:50:57;98132.13;;;17.20;58.64
78488;BME280;67885;49.758;9.582;2023-03-24T09:53:36;98049.47;;;16.45;58.34
78488;BME280;67885;49.758;9.582;2023-03-24T09:56:12;98132.38;;;17.25;57.81
78488;BME280;67885;49.758;9.582;2023-03-24T09:58:39;98134.22;;;17.25;57.58
78488;BME280;67885;49.758;9.582;2023-03-24T10:01:11;98096.25;;;16.93;57.80
78488;BME280;67885;49.758;9.582;2023-03-24T10:03:39;98121.44;;;17.20;58.00
78488;BME280;67885;49.758;9.582;2023-03-24T10:06:09;98126.81;;;17.27;57.15
78488;BME280;67885;49.758;9.582;2023-03-24T10:08:42;98037.47;;;16.56;57.00
78488;BME280;67885;49.758;9.582;2023-03-24T10:11:17;98130.16;;;17.29;57.25
78488;BME280;67885;49.758;9.582;2023-03-24T10:13:57;98122.56;;;17.32;57.01
78488;BME280;67885;49.758;9.582;2023-03-24T10:16:36;98144.03;;;17.39;56.26
78488;BME280;67885;49.758;9.582;2023-03-24T10:19:22;98095.63;;;17.12;56.90
78488;BME280;67885;49.758;9.582;2023-03-24T10:22:03;98130.16;;;17.29;57.02
78488;BME280;67885;49.758;9.582;2023-03-24T10:24:39;98143.00;;;17.18;57.44
78488;BME280;67885;49.758;9.582;2023-03-24T10:27:17;98044.09;;;16.60;57.73
78488;BME280;67885;49.758;9.582;2023-03-24T10:29:59;98154.81;;;17.24;58.20
78488;BME280;67885;49.758;9.582;2023-03-24T10:32:32;98154.34;;;17.21;58.43
78488;BME280;67885;49.758;9.582;2023-03-24T10:35:01;98151.22;;;17.17;58.62
78488;BME280;67885;49.758;9.582;2023-03-24T10:37:35;98071.28;;;16.64;58.46
78488;BME280;67885;49.758;9.582;2023-03-24T10:40:12;98147.47;;;17.11;58.58
78488;BME280;67885;49.758;9.582;2023-03-24T10:42:41;98152.63;;;17.13;58.63
78488;BME280;67885;49.758;9.582;2023-03-24T10:45:11;98156.78;;;17.15;59.15
78488;BME280;67885;49.758;9.582;2023-03-24T10:47:39;98153.28;;;17.15;58.56
78488;BME280;67885;49.758;9.582;2023-03-24T10:50:09;98162.31;;;17.14;58.99
78488;BME280;67885;49.758;9.582;2023-03-24T10:52:38;98166.97;;;17.05;58.44
78488;BME280;67885;49.758;9.582;2023-03-24T10:55:13;98166.41;;;17.10;59.29
78488;BME280;67885;49.758;9.582;2023-03-24T10:57:43;98147.03;;;17.08;59.61
78488;BME280;67885;49.758;9.582;2023-03-24T11:00:16;98161.50;;;17.13;59.78
78488;BME280;67885;49.758;9.582;2023-03-24T11:02:55;98144.72;;;17.05;60.16
78488;BME280;67885;49.758;9.582;2023-03-24T11:05:28;98168.13;;;17.17;60.16
78488;BME280;67885;49.758;9.582;2023-03-24T11:08:11;98129.47;;;16.98;60.60
78488;BME280;67885;49.758;9.582;2023-03-24T11:10:41;98170.88;;;17.24;60.34
78488;BME280;67885;49.758;9.582;2023-03-24T11:13:17;98156.56;;;17.17;60.86
78488;BME280;67885;49.758;9.582;2023-03-24T11:15:53;98155.97;;;17.15;60.59
78488;BME280;67885;49.758;9.582;2023-03-24T11:18:20;98177.38;;;17.15;60.80
78488;BME280;67885;49.758;9.582;2023-03-24T11:20:52;98141.25;;;17.04;61.31
78488;BME280;67885;49.758;9.582;2023-03-24T11:23:25;98160.78;;;17.05;60.83
78488;BME280;67885;49.758;9.582;2023-03-24T11:26:06;98177.56;;;17.13;61.84
78488;BME280;67885;49.758;9.582;2023-03-24T11:28:38;98176.09;;;17.11;60.75
78488;BME280;67885;49.758;9.582;2023-03-24T11:31:08;98173.69;;;17.16;60.96
78488;BME280;67885;49.758;9.582;2023-03-24T11:33:42;98178.69;;;17.26;61.36
78488;BME280;67885;49.758;9.582;2023-03-24T11:36:36;98189.00;;;17.29;60.41
78488;BME280;67885;49.758;9.582;2023-03-24T11:39:17;98198.72;;;17.30;59.67
78488;BME280;67885;49.758;9.582;2023-03-24T11:42:01;98171.94;;;17.08;60.27
78488;BME280;67885;49.758;9.582;2023-03-24T11:44:31;98164.81;;;17.15;59.60
78488;BME280;67885;49.758;9.582;2023-03-24T11:47:03;98198.50;;;17.31;59.68
78488;BME280;67885;49.758;9.582;2023-03-24T11:49:37;98198.44;;;17.25;59.94
78488;BME280;67885;49.758;9.582;2023-03-24T11:52:18;98205.94;;;17.36;60.55
78488;BME280;67885;49.758;9.582;2023-03-24T11:54:46;98244.28;;;17.36;59.57
78488;BME280;67885;49.758;9.582;2023-03-24T11:57:23;98262.09;;;17.29;54.69
78488;BME280;67885;49.758;9.582;2023-03-24T11:59:58;98263.94;;;16.92;54.33
78488;BME280;67885;49.758;9.582;2023-03-24T12:02:46;98267.16;;;16.73;54.26
78488;BME280;67885;49.758;9.582;2023-03-24T12:05:27;98270.47;;;16.60;54.91
78488;BME280;67885;49.758;9.582;2023-03-24T12:08:18;98221.53;;;16.14;54.94
78488;BME280;67885;49.758;9.582;2023-03-24T12:10:59;98252.25;;;16.33;55.18
78488;BME280;67885;49.758;9.582;2023-03-24T12:13:36;98215.91;;;15.94;55.53
78488;BME280;67885;49.758;9.582;2023-03-24T12:16:17;98255.31;;;16.07;55.76
78488;BME280;67885;49.758;9.582;2023-03-24T12:19:17;98202.47;;;15.64;56.32
78488;BME280;67885;49.758;9.582;2023-03-24T12:22:03;98261.06;;;15.81;56.94
78488;BME280;67885;49.758;9.582;2023-03-24T12:24:48;98260.38;;;15.79;57.67
78488;BME280;67885;49.758;9.582;2023-03-24T12:27:31;98258.63;;;15.71;57.73
78488;BME280;67885;49.758;9.582;2023-03-24T12:30:15;98261.75;;;15.75;58.79
78488;BME280;67885;49.758;9.582;2023-03-24T12:32:58;98254.06;;;15.80;58.76
78488;BME280;67885;49.758;9.582;2023-03-24T12:35:39;98226.03;;;15.76;58.09
78488;BME280;67885;49.758;9.582;2023-03-24T12:38:25;98244.38;;;16.02;58.08
78488;BME280;67885;49.758;9.582;2023-03-24T12:44:34;98239.41;;;16.14;56.82
78488;BME280;67885;49.758;9.582;2023-03-24T12:47:23;98236.53;;;16.15;56.55
78488;BME280;67885;49.758;9.582;2023-03-24T12:50:08;98251.66;;;16.23;57.38
78488;BME280;67885;49.758;9.582;2023-03-24T12:52:57;98248.91;;;16.31;57.01
78488;BME280;67885;49.758;9.582;2023-03-24T12:55:34;98218.22;;;16.12;56.72
78488;BME280;67885;49.758;9.582;2023-03-24T12:58:13;98250.28;;;16.42;56.31
78488;BME280;67885;49.758;9.582;2023-03-24T13:00:53;98238.59;;;16.43;56.27
78488;BME280;67885;49.758;9.582;2023-03-24T13:03:29;98207.44;;;16.35;56.02
78488;BME280;67885;49.758;9.582;2023-03-24T13:06:08;98221.00;;;16.49;57.16
78488;BME280;67885;49.758;9.582;2023-03-24T13:08:41;98223.13;;;16.54;56.63
78488;BME280;67885;49.758;9.582;2023-03-24T13:11:13;98227.81;;;16.51;56.60
78488;BME280;67885;49.758;9.582;2023-03-24T13:13:45;98237.78;;;16.58;56.86
78488;BME280;67885;49.758;9.582;2023-03-24T13:16:18;98247.09;;;16.62;56.64
78488;BME280;67885;49.758;9.582;2023-03-24T13:18:51;98244.03;;;16.65;57.60
78488;BME280;67885;49.758;9.582;2023-03-24T13:21:20;98226.41;;;16.71;57.38
78488;BME280;67885;49.758;9.582;2023-03-24T13:23:52;98232.22;;;16.74;57.60
78488;BME280;67885;49.758;9.582;2023-03-24T13:26:29;98243.91;;;16.73;56.69
78488;BME280;67885;49.758;9.582;2023-03-24T13:29:11;98232.22;;;16.74;57.43